Containerships 6 — DABH — position and weather

sailwx.info

Track history (hours):
 
Tides and Currents Weather Stations Pressure Air Temp Water Temp Dewpoint Dewpoint Depression Visibility Wind Speed Wind Dir Waves Ship Positions

Containerships 6

Last reported at 2015-May-23 20:33 UTC. Time now 2015-May-24 15:24 UTC.
Position N 59°10' E 021°41'.

Length 155 m; beam 21.8 m; draft 8.9 m.

Type: Ship (hazmat cat A). MMSI: 211315096.

Date/timePositionNaut miles runAvg speedWind from/ knotsBaromVisibWave heightAir tempDewpointWater temp
2015-May-23 20:33N 59°10' E 021°41'5718.3
2015-May-23 17:26N 59°37' E 023°19'1618.8
2015-May-23 16:33N 59°42' E 023°50'1818.5
2015-May-23 15:34N 59°47' E 024°25'3216.1
2015-May-23 13:34N 60°09' E 025°12'4 3.6
2015-May-23 12:30N 60°13' E 025°12'0 0.0
2015-May-23 11:33N 60°13' E 025°12'0 0.0
2015-May-23 09:29N 60°13' E 025°12'0 0.0
2015-May-23 08:11N 60°13' E 025°12'0 0.0
2015-May-23 07:05N 60°13' E 025°12'0 0.0
2015-May-23 06:20N 60°13' E 025°12'0 0.0
2015-May-23 05:32N 60°13' E 025°12'0 0.0
2015-May-23 04:32N 60°13' E 025°12'0 0.0
2015-May-23 03:31N 60°13' E 025°12'0 0.0
2015-May-23 02:31N 60°13' E 025°12'0 0.0
2015-May-23 01:31N 60°13' E 025°12'0 0.0
2015-May-23 00:25N 60°13' E 025°12'0 0.0
2015-May-22 23:31N 60°13' E 025°12'0 0.0
2015-May-22 22:33N 60°13' E 025°12'0 0.0
2015-May-22 21:32N 60°13' E 025°12'0 0.0
2015-May-22 19:33N 60°13' E 025°12'3 2.5
2015-May-22 18:33N 60°10' E 025°13'2310.8
2015-May-22 16:23N 59°58' E 025°53'1315.8
2015-May-22 15:33N 60°00' E 026°20'1615.7
2015-May-22 14:33N 60°00' E 026°51'1915.1
2015-May-22 13:19N 60°06' E 027°26'6814.3
2015-May-22 08:32N 59°59' E 029°43'1 1.1
2015-May-22 07:33N 60°00' E 029°43'0 0.0
2015-May-22 06:25N 60°00' E 029°43'0 0.0
2015-May-22 05:25N 60°00' E 029°43'0 0.0
2015-May-22 04:31N 60°00' E 029°43'0 0.0
2015-May-22 03:07N 60°00' E 029°43'0 0.0
2015-May-22 02:19N 60°00' E 029°43'0 0.0
2015-May-22 01:25N 60°00' E 029°43'0 0.0
2015-May-22 00:31N 60°00' E 029°43'0 0.0
2015-May-21 23:31N 60°00' E 029°43'0 0.0
2015-May-21 22:28N 60°00' E 029°43'0 0.0
2015-May-21 21:31N 60°00' E 029°43'0 0.0
2015-May-21 20:31N 60°00' E 029°43'0 0.0
2015-May-21 19:31N 60°00' E 029°43'0 0.0
2015-May-21 18:31N 60°00' E 029°43'0 0.0
2015-May-21 17:28N 60°00' E 029°43'0 0.0
2015-May-21 15:31N 60°00' E 029°43'0 0.0
2015-May-21 12:31N 60°00' E 029°43'0 0.0
2015-May-21 11:33N 60°00' E 029°43'0 0.0
2015-May-21 10:32N 60°00' E 029°43'0 0.0
2015-May-21 09:31N 60°00' E 029°43'0 0.0
2015-May-21 08:32N 60°00' E 029°43'0 0.0
2015-May-21 07:33N 60°00' E 029°43'0 0.0
2015-May-21 06:33N 60°00' E 029°43'0 0.0
2015-May-21 05:20N 60°00' E 029°43'1 1.2
2015-May-21 04:33N 59°59' E 029°43'6512.2
2015-May-20 23:12N 60°07' E 027°33'1116.5
2015-May-20 22:34N 60°01' E 027°15'1615.7
2015-May-20 21:34N 59°59' E 026°44'1616.2
2015-May-20 20:33N 59°56' E 026°12'1616.6
2015-May-20 19:34N 59°52' E 025°40'1614.5
2015-May-20 18:26N 60°01' E 025°14'1011.4
2015-May-20 17:33N 60°11' E 025°13'2 1.8
2015-May-20 16:33N 60°13' E 025°11'0 0.0
2015-May-20 15:31N 60°13' E 025°11'0 0.0
2015-May-20 14:31N 60°13' E 025°11'0 0.0
2015-May-20 13:31N 60°13' E 025°11'0 0.0
2015-May-20 12:34N 60°13' E 025°11'0 0.0
2015-May-20 11:34N 60°13' E 025°11'0 0.0
2015-May-20 10:30N 60°13' E 025°11'0 0.0
2015-May-20 09:30N 60°13' E 025°11'0 0.0
2015-May-20 08:33N 60°13' E 025°11'0 0.0
2015-May-20 07:33N 60°13' E 025°11'0 0.0
2015-May-20 06:33N 60°13' E 025°11'0 0.0
2015-May-20 05:33N 60°13' E 025°11'0 0.0
2015-May-20 04:33N 60°13' E 025°11'0 0.4
2015-May-20 03:33N 60°13' E 025°12'3014.5
2015-May-20 01:29N 59°46' E 024°44'3618.5
2015-May-19 23:33N 59°36' E 023°36'35018.2
2015-May-19 04:20N 55°40' E 015°33'1418.4
2015-May-19 03:33N 55°34' E 015°11'1918.7
2015-May-19 02:33N 55°25' E 014°42'1918.8
2015-May-19 01:33N 55°11' E 014°19'1817.5
2015-May-19 00:33N 55°11' E 013°48'1817.7
2015-May-18 23:33N 55°13' E 013°17'1717.3
2015-May-18 22:33N 55°16' E 012°47'1313.5
2015-May-18 21:33N 55°29' E 012°41'1312.6
2015-May-18 20:33N 55°41' E 012°41'1716.7
2015-May-18 19:33N 55°58' E 012°40'1615.7
2015-May-18 18:33N 56°10' E 012°22'1717.0
2015-May-18 17:32N 56°23' E 012°01'1817.9
2015-May-18 16:33N 56°40' E 011°54'1818.2
2015-May-18 15:33N 56°57' E 011°43'1918.4
2015-May-18 14:33N 57°15' E 011°32'1817.7
2015-May-18 13:33N 57°31' E 011°17'1818.4
2015-May-18 12:33N 57°43' E 010°52'1817.8
2015-May-18 11:33N 57°45' E 010°19'9718.3
2015-May-18 06:17N 56°46' E 007°57'7218.7
2015-May-18 02:25N 55°44' E 006°49'1618.4
2015-May-18 01:33N 55°31' E 006°34'1918.4
2015-May-18 00:32N 55°15' E 006°16'7318.4
2015-May-17 20:33N 54°14' E 005°07'1818.2
2015-May-17 19:33N 53°57' E 004°55'1918.6
2015-May-17 18:32N 53°38' E 004°50'1919.4
2015-May-17 17:34N 53°20' E 004°39'2020.4
2015-May-17 16:33N 53°02' E 004°24'2020.2
2015-May-17 15:33N 52°44' E 004°09'2019.9
2015-May-17 14:33N 52°26' E 003°54'2019.7
2015-May-17 13:33N 52°07' E 003°55'1414.4
2015-May-17 12:33N 51°56' E 004°12'9 8.5
2015-May-17 11:33N 51°53' E 004°25'0 0.3
2015-May-17 10:33N 51°53' E 004°25'0 0.0
2015-May-17 09:33N 51°53' E 004°25'0 0.0
2015-May-17 08:33N 51°53' E 004°25'0 0.0
2015-May-17 07:33N 51°53' E 004°25'0 0.0
2015-May-17 06:33N 51°53' E 004°25'0 0.0
2015-May-17 05:33N 51°53' E 004°25'0 0.0
2015-May-17 04:33N 51°53' E 004°25'0 0.0
2015-May-17 03:33N 51°53' E 004°25'0 0.0
2015-May-17 02:33N 51°53' E 004°25'0 0.0
2015-May-17 01:33N 51°53' E 004°25'0 0.0
2015-May-17 00:33N 51°53' E 004°25'0 0.0
2015-May-16 23:33N 51°53' E 004°25'0 0.0
2015-May-16 22:33N 51°53' E 004°25'4 3.9
2015-May-16 21:33N 51°54' E 004°19'1212.1
2015-May-16 20:34N 51°60' E 004°02'1818.0
2015-May-16 19:33N 52°06' E 003°34'5819.3
2015-May-16 16:32N 52°39' E 002°15'1920.0
2015-May-16 15:34N 52°50' E 001°49'1919.2
2015-May-16 14:34N 53°04' E 001°27'1919.1
2015-May-16 13:34N 53°20' E 001°10'2519.4
2015-May-16 12:16N 53°41' E 000°47'1419.4
2015-May-16 11:33N 53°51' E 000°31'1919.1
2015-May-16 10:34N 54°06' E 000°11'1918.9
2015-May-16 09:33N 54°19' W 000°12'2318.6
2015-May-16 08:20N 54°35' W 000°41'1518.6
2015-May-16 07:33N 54°40' W 001°05'4 3.8
2015-May-16 06:23N 54°36' W 001°09'1110.9
2015-May-16 05:25N 54°45' W 000°58'2 0.1
2015-May-15 17:15N 54°45' W 000°55'1618.5
2015-May-15 16:23N 54°52' W 000°31'1518.3
2015-May-15 15:33N 54°59' W 000°07'2618.3
2015-May-15 14:09N 55°10' E 000°34'1118.6
2015-May-15 13:34N 55°16' E 000°50'2418.5
2015-May-15 12:14N 55°26' E 001°29'1618.8
2015-May-15 11:22N 55°34' E 001°55'30515.8
2015-May-14 16:06N 57°46' E 010°15'1018.4
2015-May-14 15:33N 57°49' E 010°33'1717.1
2015-May-14 14:33N 57°41' E 011°01'1818.4
2015-May-14 13:33N 57°28' E 011°26'1818.1
2015-May-14 12:33N 57°11' E 011°37'1918.5
2015-May-14 11:33N 56°54' E 011°48'1717.3
2015-May-14 10:33N 56°36' E 011°44'1919.0
2015-May-14 09:33N 56°20' E 011°27'10016.2
2015-May-14 03:23N 54°42' E 010°54'1518.0
2015-May-14 02:33N 54°34' E 011°17'1817.9
2015-May-14 01:33N 54°27' E 011°45'1615.5
2015-May-14 00:32N 54°30' E 012°11'1717.7
2015-May-13 23:33N 54°43' E 012°30'1818.4
2015-May-13 22:33N 54°51' E 012°59'1918.6
2015-May-13 21:33N 54°57' E 013°30'  
Track history (hours):
 
Tides and Currents Weather Stations Pressure Air Temp Water Temp Dewpoint Dewpoint Depression Visibility Wind Speed Wind Dir Waves Ship Positions

Containerships 6

Last reported at 2015-May-23 20:33 UTC. Time now 2015-May-24 15:24 UTC.
Position N 59°10' E 021°41'.

Length 155 m; beam 21.8 m; draft 8.9 m.

Type: Ship (hazmat cat A). MMSI: 211315096.

Date/timePositionNaut miles runAvg speedWind from/ knotsBaromVisibWave heightAir tempDewpointWater temp
2015-May-23 20:33N 59°10' E 021°41'5718.3
2015-May-23 17:26N 59°37' E 023°19'1618.8
2015-May-23 16:33N 59°42' E 023°50'1818.5
2015-May-23 15:34N 59°47' E 024°25'3216.1
2015-May-23 13:34N 60°09' E 025°12'4 3.6
2015-May-23 12:30N 60°13' E 025°12'0 0.0
2015-May-23 11:33N 60°13' E 025°12'0 0.0
2015-May-23 09:29N 60°13' E 025°12'0 0.0
2015-May-23 08:11N 60°13' E 025°12'0 0.0
2015-May-23 07:05N 60°13' E 025°12'0 0.0
2015-May-23 06:20N 60°13' E 025°12'0 0.0
2015-May-23 05:32N 60°13' E 025°12'0 0.0
2015-May-23 04:32N 60°13' E 025°12'0 0.0
2015-May-23 03:31N 60°13' E 025°12'0 0.0
2015-May-23 02:31N 60°13' E 025°12'0 0.0
2015-May-23 01:31N 60°13' E 025°12'0 0.0
2015-May-23 00:25N 60°13' E 025°12'0 0.0
2015-May-22 23:31N 60°13' E 025°12'0 0.0
2015-May-22 22:33N 60°13' E 025°12'0 0.0
2015-May-22 21:32N 60°13' E 025°12'0 0.0
2015-May-22 19:33N 60°13' E 025°12'3 2.5
2015-May-22 18:33N 60°10' E 025°13'2310.8
2015-May-22 16:23N 59°58' E 025°53'1315.8
2015-May-22 15:33N 60°00' E 026°20'1615.7
2015-May-22 14:33N 60°00' E 026°51'1915.1
2015-May-22 13:19N 60°06' E 027°26'6814.3
2015-May-22 08:32N 59°59' E 029°43'1 1.1
2015-May-22 07:33N 60°00' E 029°43'0 0.0
2015-May-22 06:25N 60°00' E 029°43'0 0.0
2015-May-22 05:25N 60°00' E 029°43'0 0.0
2015-May-22 04:31N 60°00' E 029°43'0 0.0
2015-May-22 03:07N 60°00' E 029°43'0 0.0
2015-May-22 02:19N 60°00' E 029°43'0 0.0
2015-May-22 01:25N 60°00' E 029°43'0 0.0
2015-May-22 00:31N 60°00' E 029°43'0 0.0
2015-May-21 23:31N 60°00' E 029°43'0 0.0
2015-May-21 22:28N 60°00' E 029°43'0 0.0
2015-May-21 21:31N 60°00' E 029°43'0 0.0
2015-May-21 20:31N 60°00' E 029°43'0 0.0
2015-May-21 19:31N 60°00' E 029°43'0 0.0
2015-May-21 18:31N 60°00' E 029°43'0 0.0
2015-May-21 17:28N 60°00' E 029°43'0 0.0
2015-May-21 15:31N 60°00' E 029°43'0 0.0
2015-May-21 12:31N 60°00' E 029°43'0 0.0
2015-May-21 11:33N 60°00' E 029°43'0 0.0
2015-May-21 10:32N 60°00' E 029°43'0 0.0
2015-May-21 09:31N 60°00' E 029°43'0 0.0
2015-May-21 08:32N 60°00' E 029°43'0 0.0
2015-May-21 07:33N 60°00' E 029°43'0 0.0
2015-May-21 06:33N 60°00' E 029°43'0 0.0
2015-May-21 05:20N 60°00' E 029°43'1 1.2
2015-May-21 04:33N 59°59' E 029°43'6512.2
2015-May-20 23:12N 60°07' E 027°33'1116.5
2015-May-20 22:34N 60°01' E 027°15'1615.7
2015-May-20 21:34N 59°59' E 026°44'1616.2
2015-May-20 20:33N 59°56' E 026°12'1616.6
2015-May-20 19:34N 59°52' E 025°40'1614.5
2015-May-20 18:26N 60°01' E 025°14'1011.4
2015-May-20 17:33N 60°11' E 025°13'2 1.8
2015-May-20 16:33N 60°13' E 025°11'0 0.0
2015-May-20 15:31N 60°13' E 025°11'0 0.0
2015-May-20 14:31N 60°13' E 025°11'0 0.0
2015-May-20 13:31N 60°13' E 025°11'0 0.0
2015-May-20 12:34N 60°13' E 025°11'0 0.0
2015-May-20 11:34N 60°13' E 025°11'0 0.0
2015-May-20 10:30N 60°13' E 025°11'0 0.0
2015-May-20 09:30N 60°13' E 025°11'0 0.0
2015-May-20 08:33N 60°13' E 025°11'0 0.0
2015-May-20 07:33N 60°13' E 025°11'0 0.0
2015-May-20 06:33N 60°13' E 025°11'0 0.0
2015-May-20 05:33N 60°13' E 025°11'0 0.0
2015-May-20 04:33N 60°13' E 025°11'0 0.4
2015-May-20 03:33N 60°13' E 025°12'3014.5
2015-May-20 01:29N 59°46' E 024°44'3618.5
2015-May-19 23:33N 59°36' E 023°36'35018.2
2015-May-19 04:20N 55°40' E 015°33'1418.4
2015-May-19 03:33N 55°34' E 015°11'1918.7
2015-May-19 02:33N 55°25' E 014°42'1918.8
2015-May-19 01:33N 55°11' E 014°19'1817.5
2015-May-19 00:33N 55°11' E 013°48'1817.7
2015-May-18 23:33N 55°13' E 013°17'1717.3
2015-May-18 22:33N 55°16' E 012°47'1313.5
2015-May-18 21:33N 55°29' E 012°41'1312.6
2015-May-18 20:33N 55°41' E 012°41'1716.7
2015-May-18 19:33N 55°58' E 012°40'1615.7
2015-May-18 18:33N 56°10' E 012°22'1717.0
2015-May-18 17:32N 56°23' E 012°01'1817.9
2015-May-18 16:33N 56°40' E 011°54'1818.2
2015-May-18 15:33N 56°57' E 011°43'1918.4
2015-May-18 14:33N 57°15' E 011°32'1817.7
2015-May-18 13:33N 57°31' E 011°17'1818.4
2015-May-18 12:33N 57°43' E 010°52'1817.8
2015-May-18 11:33N 57°45' E 010°19'9718.3
2015-May-18 06:17N 56°46' E 007°57'7218.7
2015-May-18 02:25N 55°44' E 006°49'1618.4
2015-May-18 01:33N 55°31' E 006°34'1918.4
2015-May-18 00:32N 55°15' E 006°16'7318.4
2015-May-17 20:33N 54°14' E 005°07'1818.2
2015-May-17 19:33N 53°57' E 004°55'1918.6
2015-May-17 18:32N 53°38' E 004°50'1919.4
2015-May-17 17:34N 53°20' E 004°39'2020.4
2015-May-17 16:33N 53°02' E 004°24'2020.2
2015-May-17 15:33N 52°44' E 004°09'2019.9
2015-May-17 14:33N 52°26' E 003°54'2019.7
2015-May-17 13:33N 52°07' E 003°55'1414.4
2015-May-17 12:33N 51°56' E 004°12'9 8.5
2015-May-17 11:33N 51°53' E 004°25'0 0.3
2015-May-17 10:33N 51°53' E 004°25'0 0.0
2015-May-17 09:33N 51°53' E 004°25'0 0.0
2015-May-17 08:33N 51°53' E 004°25'0 0.0
2015-May-17 07:33N 51°53' E 004°25'0 0.0
2015-May-17 06:33N 51°53' E 004°25'0 0.0
2015-May-17 05:33N 51°53' E 004°25'0 0.0
2015-May-17 04:33N 51°53' E 004°25'0 0.0
2015-May-17 03:33N 51°53' E 004°25'0 0.0
2015-May-17 02:33N 51°53' E 004°25'0 0.0
2015-May-17 01:33N 51°53' E 004°25'0 0.0
2015-May-17 00:33N 51°53' E 004°25'0 0.0
2015-May-16 23:33N 51°53' E 004°25'0 0.0
2015-May-16 22:33N 51°53' E 004°25'4 3.9
2015-May-16 21:33N 51°54' E 004°19'1212.1
2015-May-16 20:34N 51°60' E 004°02'1818.0
2015-May-16 19:33N 52°06' E 003°34'5819.3
2015-May-16 16:32N 52°39' E 002°15'1920.0
2015-May-16 15:34N 52°50' E 001°49'1919.2
2015-May-16 14:34N 53°04' E 001°27'1919.1
2015-May-16 13:34N 53°20' E 001°10'2519.4
2015-May-16 12:16N 53°41' E 000°47'1419.4
2015-May-16 11:33N 53°51' E 000°31'1919.1
2015-May-16 10:34N 54°06' E 000°11'1918.9
2015-May-16 09:33N 54°19' W 000°12'2318.6
2015-May-16 08:20N 54°35' W 000°41'1518.6
2015-May-16 07:33N 54°40' W 001°05'4 3.8
2015-May-16 06:23N 54°36' W 001°09'1110.9
2015-May-16 05:25N 54°45' W 000°58'2 0.1
2015-May-15 17:15N 54°45' W 000°55'1618.5
2015-May-15 16:23N 54°52' W 000°31'1518.3
2015-May-15 15:33N 54°59' W 000°07'2618.3
2015-May-15 14:09N 55°10' E 000°34'1118.6
2015-May-15 13:34N 55°16' E 000°50'2418.5
2015-May-15 12:14N 55°26' E 001°29'1618.8
2015-May-15 11:22N 55°34' E 001°55'30515.8
2015-May-14 16:06N 57°46' E 010°15'1018.4
2015-May-14 15:33N 57°49' E 010°33'1717.1
2015-May-14 14:33N 57°41' E 011°01'1818.4
2015-May-14 13:33N 57°28' E 011°26'1818.1
2015-May-14 12:33N 57°11' E 011°37'1918.5
2015-May-14 11:33N 56°54' E 011°48'1717.3
2015-May-14 10:33N 56°36' E 011°44'1919.0
2015-May-14 09:33N 56°20' E 011°27'10016.2
2015-May-14 03:23N 54°42' E 010°54'1518.0
2015-May-14 02:33N 54°34' E 011°17'1817.9
2015-May-14 01:33N 54°27' E 011°45'1615.5
2015-May-14 00:32N 54°30' E 012°11'1717.7
2015-May-13 23:33N 54°43' E 012°30'1818.4
2015-May-13 22:33N 54°51' E 012°59'1918.6
2015-May-13 21:33N 54°57' E 013°30'  

Dump ship's entire track history